• Join FlightAware (Why Join?)
  • Login
  • US Flag 
04:13AM EST


 

Airport Tracker/Info


-or-


 

Live Flight TrackerFlight Track Log ✈ LXJ342 ✈ 03-Sep-2013 ✈ KBGR - KPWM

Flight Track Log - Related Links

Times and Time Zones

All times are in EDT time to prevent confusion due to time zone crossing. See the LXJ342 flight status page for this flight to view local times or setup timezone preferences in your user account.

Time Position Orientation Groundspeed Altitude Reporting Facility
EDT Latitude Longitude Course Direction KTS MPH feet Rate Location/Type
11:07AM 44.6030 -69.1510 221° Southwest  Level FlightAware Approximate
11:08AM 44.5490 -69.2158 221° Southwest  Level FlightAware Approximate
11:09AM 44.4949 -69.2805 221° Southwest  Level FlightAware Approximate
11:10AM 44.4409 -69.3450 220° Southwest  Level FlightAware Approximate
11:11AM 44.3868 -69.4094 220° Southwest  Level FlightAware Approximate
11:12AM 44.3325 -69.4735 220° Southwest  Level FlightAware Approximate
11:13AM 44.2780 -69.5373 220° Southwest  Level FlightAware Approximate
11:14AM 44.2235 -69.6009 220° Southwest  Level FlightAware Approximate
11:15AM 44.1690 -69.6644 220° Southwest  Level FlightAware Approximate
11:16AM 44.1145 -69.7279 220° Southwest  Level FlightAware Approximate
11:17AM 44.0600 -69.7912 220° Southwest  Level FlightAware Approximate
11:18AM 44.0057 -69.8549 220° Southwest  Level FlightAware Approximate
11:19AM 43.9513 -69.9185 220° Southwest  Level FlightAware Approximate
11:20AM 43.8970 -69.9819 220° Southwest  Level FlightAware Approximate
11:21AM 43.8425 -70.0453 220° Southwest  Level FlightAware Approximate
11:22AM 43.7881 -70.1085 220° Southwest  Level FlightAware Approximate
11:23AM 43.7486 -70.1848 216° Southwest  Level FlightAware Approximate
11:24AM 43.6910 -70.2423 216° Southwest  Level FlightAware Approximate
11:25AM 43.6334 -70.2999 216° Southwest  Level FlightAware Approximate
11:26AM 43.6456 -70.3086 216° Southwest  Level Estimated
11:27AM 43.6456 -70.3086 216° Southwest  Level Estimated
11:28AM 43.6456 -70.3086 216° Southwest  Level Estimated
11:29AM 43.6456 -70.3086 216° Southwest  Level Estimated
11:30AM 43.6456 -70.3086 216° Southwest  Level Estimated
11:31AM 43.6456 -70.3086 216° Southwest  Level Estimated
11:32AM 43.6456 -70.3086 216° Southwest  Level Estimated
11:33AM 43.6456 -70.3086 216° Southwest  Level Estimated
11:34AM 43.6456 -70.3086 216° Southwest  Level Estimated
11:35AM 43.6456 -70.3086 216° Southwest  Level Estimated
11:36AM 43.6456 -70.3086 216° Southwest  Level Estimated